Portada
METAR-TAF:

METAR-TAF

Aeroports :

Chiang Mai, Tailàndia

latitud: 18-47N, longitud: 098-59E, altitud: 312 m

Observació

L'informe es va fer fa 32 minuts, a les 09:00 UTC
Vent 5 kt del Sud, variant entre Est/Sud-Est i Oest/Sud-Oest
Temperatura 35°C
Humitat 27%
Pressió 1012 hPa
Visibilitat: 6000 m
Escasses núvols a una alçada de 3500 ft

METAR: VTCC 260900Z 18005KT 110V240 6000 FEW035 35/13 Q1012 NOSIG

Hora: 16:32 (09:32 UTC)

Pronòstic

L'informe es va fer fa 4 hores i 32 minuts, a les 05:00 UTC
Pronòstic vàlid del 26 a les 06 UTC al 27 a les 12 UTC
Vent 5 kt del Sud/Sud-Est
Visibilitat: 6000 m
Escasses núvols a una alçada de 3500 ft
Evolucionant progressivament
l' 26 a les 12 UTC al 26 a les 14 UTC
Vent 4 kt del Oest/Nord-Oest
Evolucionant progressivament
l' 26 a les 23 UTC al 27 a les 02 UTC
Vent 5 kt del Sud

TAF: VTCC 260500Z 2606/2712 16005KT 6000 FEW035 BECMG 2612/2614 30004KT BECMG 2623/2702 18005KT

Observacions i pronòstics meteorològics de més de 4000 aeroports (METAR i TAF).

Les estacions disponibles són els punts grocs i vermells al mapa.

Posi el ratolí al punt desitjat per veure el nom de l'estació.

Feu clic per veure les observacions i els pronòstics meteorològics.

Per canviar el mapa: feu clic els botons verds amb una creu de color negre per apropar; al botó verd amb un guió per allunyar la imatge; o en les fletxes verdes per a mapes adjacents.


METAR-TAF: